Time;durP1;ratioP1;P1;durP2;ratioP2;P2;SDS_P1;SDS_P2;PMS_P1;PMS_P2;Temp;Humidity;BMP_temperature;BMP_pressure;BME280_temperature;BME280_humidity;BME280_pressure;Samples;Min_cycle;Max_cycle;Signal;HPM_P1;HPM_P2
2022/07/25 00:01:37;;;;;;;5.20;3.70;;;;;;;13.31;70.61;100480.13;130271;1268;108807;-71
2022/07/25 00:04:42;;;;;;;3.40;3.10;;;;;;;13.24;70.72;100479.06;130243;1268;109670;-71
2022/07/25 00:07:48;;;;;;;4.40;3.30;;;;;;;13.20;70.89;100480.59;130213;1268;108887;-72
2022/07/25 00:10:53;;;;;;;4.40;3.50;;;;;;;13.25;70.98;100483.38;130403;1268;107481;-71
2022/07/25 00:13:59;;;;;;;3.50;3.20;;;;;;;13.32;70.87;100484.40;130307;1268;108616;-71
2022/07/25 00:17:04;;;;;;;5.10;3.80;;;;;;;13.36;70.73;100480.89;130286;1268;109535;-70
2022/07/25 00:20:11;;;;;;;4.10;3.60;;;;;;;13.30;70.77;100481.84;130276;1268;109356;-70
2022/07/25 00:23:16;;;;;;;4.40;3.40;;;;;;;13.18;70.79;100483.07;130323;1268;108916;-70
2022/07/25 00:26:22;;;;;;;4.10;3.70;;;;;;;13.06;71.08;100480.83;130251;1268;107693;-70
2022/07/25 00:29:27;;;;;;;4.10;3.70;;;;;;;12.95;71.24;100473.91;130237;1267;108645;-69
2022/07/25 00:32:33;;;;;;;3.30;2.90;;;;;;;12.92;71.12;100471.02;130208;1266;110243;-68
2022/07/25 00:35:38;;;;;;;6.30;3.90;;;;;;;12.93;71.19;100468.98;130336;1268;108413;-70
2022/07/25 00:38:43;;;;;;;5.40;3.60;;;;;;;12.94;71.26;100468.30;130215;1268;109753;-72
2022/07/25 00:41:49;;;;;;;4.70;3.80;;;;;;;12.95;71.16;100466.91;130231;1266;108833;-71
2022/07/25 00:44:54;;;;;;;4.60;3.80;;;;;;;12.90;70.84;100468.77;130413;1268;108834;-71
2022/07/25 00:48:00;;;;;;;4.80;3.70;;;;;;;12.81;71.40;100469.88;130286;1266;108869;-69
2022/07/25 00:51:06;;;;;;;3.20;2.90;;;;;;;12.82;71.20;100470.62;130348;1268;108936;-71
2022/07/25 00:54:13;;;;;;;4.30;3.40;;;;;;;12.74;71.41;100467.21;130466;1268;108742;-72
2022/07/25 00:57:18;;;;;;;3.40;3.10;;;;;;;12.69;71.37;100468.51;130421;1268;107821;-72
2022/07/25 01:00:24;;;;;;;4.60;3.30;;;;;;;12.66;71.44;100463.41;130468;1268;109029;-72
2022/07/25 01:03:29;;;;;;;4.10;3.40;;;;;;;12.65;71.42;100463.92;130500;1268;108639;-74
2022/07/25 01:06:35;;;;;;;3.60;3.20;;;;;;;12.56;71.35;100466.04;130348;1268;108704;-73
2022/07/25 01:09:40;;;;;;;3.90;3.40;;;;;;;12.53;71.57;100455.83;130414;1268;108796;-73
2022/07/25 01:12:53;;;;;;;5.30;3.90;;;;;;;12.53;71.89;100458.36;130375;1266;108743;-74
2022/07/25 01:15:59;;;;;;;5.60;3.50;;;;;;;12.56;71.74;100459.79;130354;1268;107249;-74
2022/07/25 01:19:04;;;;;;;3.20;2.90;;;;;;;12.51;71.36;100456.95;130349;1268;108849;-73
2022/07/25 01:22:10;;;;;;;3.70;3.30;;;;;;;12.42;71.61;100458.42;130376;1268;109004;-70
2022/07/25 01:25:16;;;;;;;7.20;3.50;;;;;;;12.42;71.85;100459.88;130375;1268;108927;-71
2022/07/25 01:28:22;;;;;;;3.70;3.40;;;;;;;12.48;71.89;100458.38;130403;1268;107017;-71
2022/07/25 01:31:27;;;;;;;3.80;3.50;;;;;;;12.49;71.96;100459.83;130220;1267;111599;-70
2022/07/25 01:34:32;;;;;;;5.50;3.40;;;;;;;12.56;72.08;100458.41;130331;1268;108468;-71
2022/07/25 01:37:38;;;;;;;3.40;3.10;;;;;;;12.63;72.01;100457.67;130341;1268;109328;-70
2022/07/25 01:40:44;;;;;;;3.60;2.80;;;;;;;12.68;71.80;100458.62;130245;1268;108681;-71
2022/07/25 01:43:49;;;;;;;3.30;3.00;;;;;;;12.69;71.79;100460.04;130365;1268;107662;-71
2022/07/25 01:46:55;;;;;;;3.60;3.20;;;;;;;12.70;71.55;100457.42;130379;1268;108735;-70
2022/07/25 01:50:00;;;;;;;4.00;3.30;;;;;;;12.77;71.61;100456.18;130198;1268;108749;-70
2022/07/25 01:53:06;;;;;;;4.20;3.60;;;;;;;12.80;71.61;100453.02;130254;1268;108839;-70
2022/07/25 01:56:12;;;;;;;3.60;3.30;;;;;;;12.79;71.34;100449.35;130351;1267;108794;-71
2022/07/25 01:59:17;;;;;;;3.90;3.50;;;;;;;12.80;71.42;100447.15;130406;1268;107572;-71
2022/07/25 02:02:23;;;;;;;3.70;3.40;;;;;;;12.78;71.26;100445.88;130456;1266;108727;-72
2022/07/25 02:05:28;;;;;;;3.40;2.90;;;;;;;12.72;71.13;100437.09;130370;1268;108772;-71
2022/07/25 02:08:34;;;;;;;2.80;2.50;;;;;;;12.65;71.43;100431.61;130422;1268;108706;-71
2022/07/25 02:11:39;;;;;;;4.10;3.10;;;;;;;12.62;71.33;100431.69;130375;1268;108893;-72
2022/07/25 02:14:45;;;;;;;3.80;3.20;;;;;;;12.66;71.58;100430.27;130403;1268;107708;-72
2022/07/25 02:17:50;;;;;;;4.30;3.20;;;;;;;12.71;71.44;100425.73;130436;1268;108649;-71
2022/07/25 02:20:55;;;;;;;5.60;3.20;;;;;;;12.72;71.40;100420.41;130474;1268;108923;-72
2022/07/25 02:24:01;;;;;;;5.10;3.70;;;;;;;12.72;71.36;100424.96;130475;1268;109112;-71
2022/07/25 02:27:06;;;;;;;5.60;3.80;;;;;;;12.68;71.48;100427.04;130340;1268;108275;-71
2022/07/25 02:30:13;;;;;;;4.50;3.60;;;;;;;12.65;71.49;100431.38;130404;1268;108991;-73
2022/07/25 02:33:19;;;;;;;3.80;3.20;;;;;;;12.64;71.52;100434.79;130455;1268;108771;-72
2022/07/25 02:36:24;;;;;;;3.10;2.80;;;;;;;12.60;71.44;100435.54;130301;1268;109251;-73
2022/07/25 02:39:30;;;;;;;3.40;3.10;;;;;;;12.56;71.46;100438.66;130493;1268;108857;-72
2022/07/25 02:42:35;;;;;;;3.50;3.20;;;;;;;12.60;71.62;100437.31;130441;1268;107745;-72
2022/07/25 02:45:41;;;;;;;4.60;3.50;;;;;;;12.63;71.34;100430.93;130397;1268;108668;-70
2022/07/25 02:48:46;;;;;;;4.10;3.70;;;;;;;12.63;71.53;100430.91;130264;1268;109434;-70
2022/07/25 02:51:52;;;;;;;4.20;3.70;;;;;;;12.59;71.61;100429.17;130238;1268;108692;-70
2022/07/25 02:54:57;;;;;;;5.60;4.20;;;;;;;12.60;71.73;100431.80;130217;1268;110783;-80
2022/07/25 02:58:02;;;;;;;4.50;3.90;;;;;;;12.59;71.75;100433.46;130437;1268;108859;-70
2022/07/25 03:01:08;;;;;;;7.00;5.60;;;;;;;12.57;71.83;100436.43;130208;1268;108580;-70
2022/07/25 03:04:13;;;;;;;5.30;4.40;;;;;;;12.84;75.66;100433.99;130208;1268;108801;-69
2022/07/25 03:07:19;;;;;;;5.00;3.60;;;;;;;13.45;75.58;100432.14;130210;1266;110324;-69
2022/07/25 03:10:24;;;;;;;5.70;3.40;;;;;;;14.04;74.77;100423.86;130210;1268;108908;-69
2022/07/25 03:13:29;;;;;;;3.90;3.50;;;;;;;14.57;73.74;100425.05;130294;1267;109609;-70
2022/07/25 03:16:35;;;;;;;4.50;3.40;;;;;;;15.06;73.59;100422.85;130328;1268;108735;-70
2022/07/25 03:19:40;;;;;;;4.10;3.40;;;;;;;15.50;72.67;100418.44;130227;1268;108656;-70
2022/07/25 03:22:46;;;;;;;3.20;2.90;;;;;;;15.82;72.44;100410.25;130339;1268;109552;-70
2022/07/25 03:25:51;;;;;;;3.70;3.10;;;;;;;16.15;72.04;100415.25;130383;1268;108956;-69
2022/07/25 03:28:57;;;;;;;3.30;2.80;;;;;;;16.44;71.68;100416.90;130329;1268;108855;-70
2022/07/25 03:32:02;;;;;;;3.30;3.00;;;;;;;16.70;71.34;100409.67;130320;1268;108445;-71
2022/07/25 03:35:10;;;;;;;3.40;3.10;;;;;;;16.90;70.61;100412.77;130338;1268;108427;-70
2022/07/25 03:38:15;;;;;;;3.10;2.70;;;;;;;16.96;70.15;100411.48;130292;1268;108717;-69
2022/07/25 03:41:20;;;;;;;3.90;2.80;;;;;;;17.06;70.58;100408.44;130263;1268;108851;-70
2022/07/25 03:44:26;;;;;;;2.70;2.30;;;;;;;17.27;70.36;100405.44;130264;1268;109643;-69
2022/07/25 03:47:32;;;;;;;3.20;2.40;;;;;;;17.59;69.93;100402.30;130220;1268;107996;-69
2022/07/25 03:50:37;;;;;;;2.40;2.20;;;;;;;17.89;69.49;100401.97;130197;1268;107695;-70
2022/07/25 03:57:05;;;;;;;2.60;2.40;;;;;;;18.21;68.59;100410.61;130267;1268;108789;-70
2022/07/25 04:00:13;;;;;;;3.80;2.70;;;;;;;18.44;68.49;100411.14;130386;1268;108829;-69
2022/07/25 04:03:18;;;;;;;3.10;2.40;;;;;;;18.66;68.07;100412.14;130306;1268;109082;-70
2022/07/25 04:06:24;;;;;;;3.80;2.80;;;;;;;18.80;68.28;100415.29;130252;1268;108857;-70
2022/07/25 04:09:29;;;;;;;3.00;2.50;;;;;;;19.04;68.02;100413.25;130336;1268;108581;-70
2022/07/25 04:12:36;;;;;;;3.30;2.70;;;;;;;19.28;67.88;100415.95;130239;1268;108703;-69
2022/07/25 04:15:41;;;;;;;3.30;2.80;;;;;;;19.38;67.43;100419.90;130250;1267;109102;-70
2022/07/25 04:18:46;;;;;;;3.00;2.70;;;;;;;19.37;67.44;100420.16;130295;1268;108751;-69
2022/07/25 04:21:52;;;;;;;2.50;2.20;;;;;;;19.52;67.52;100412.85;130218;1268;108848;-69
2022/07/25 04:24:58;;;;;;;2.40;2.20;;;;;;;19.81;67.33;100410.64;130263;1268;108801;-70
2022/07/25 04:28:03;;;;;;;2.80;2.40;;;;;;;20.04;67.00;100408.73;130199;1268;108874;-69
2022/07/25 04:31:09;;;;;;;3.00;2.20;;;;;;;20.27;66.75;100411.34;130254;1268;109520;-69
2022/07/25 04:34:14;;;;;;;2.50;2.30;;;;;;;20.47;66.50;100415.02;130310;1268;107554;-71
2022/07/25 04:37:20;;;;;;;4.70;2.30;;;;;;;20.66;66.23;100413.10;130337;1268;108737;-70
2022/07/25 04:40:25;;;;;;;3.10;2.70;;;;;;;20.81;66.09;100409.45;130305;1268;108744;-71
2022/07/25 04:43:30;;;;;;;3.70;2.40;;;;;;;20.92;65.96;100408.47;130273;1268;108821;-71
2022/07/25 04:46:36;;;;;;;2.70;2.50;;;;;;;21.03;65.80;100406.52;130282;1268;109448;-71
2022/07/25 04:49:41;;;;;;;3.20;2.20;;;;;;;21.13;65.76;100404.73;130211;1268;107004;-71
2022/07/25 04:52:47;;;;;;;4.40;2.70;;;;;;;21.22;65.71;100402.02;130291;1268;108793;-72
2022/07/25 04:55:52;;;;;;;3.90;2.40;;;;;;;21.30;65.63;100397.11;130366;1268;108735;-71
2022/07/25 04:58:57;;;;;;;2.60;2.40;;;;;;;21.39;65.49;100394.27;130415;1266;108398;-71
2022/07/25 05:02:03;;;;;;;2.60;2.40;;;;;;;21.49;65.32;100391.77;130377;1268;108757;-70
2022/07/25 05:05:10;;;;;;;2.60;2.40;;;;;;;21.59;65.09;100393.11;130361;1268;108691;-71
2022/07/25 05:08:15;;;;;;;2.40;2.20;;;;;;;21.69;64.95;100385.11;130204;1268;108887;-72
2022/07/25 05:11:21;;;;;;;4.30;2.40;;;;;;;21.79;64.83;100386.91;130263;1268;107079;-71
2022/07/25 05:14:26;;;;;;;3.80;2.20;;;;;;;21.89;64.63;100388.60;130237;1268;109573;-71
2022/07/25 05:17:31;;;;;;;3.50;3.20;;;;;;;21.96;64.66;100386.33;130374;1268;108911;-73
2022/07/25 05:20:37;;;;;;;3.60;3.30;;;;;;;21.99;65.35;100385.70;130523;1268;108990;-73
2022/07/25 05:23:42;;;;;;;3.40;3.10;;;;;;;21.93;65.59;100383.92;130232;1268;108858;-73
2022/07/25 05:26:48;;;;;;;3.60;3.30;;;;;;;21.88;65.76;100380.17;130364;1268;108782;-73
2022/07/25 05:29:53;;;;;;;4.20;3.70;;;;;;;21.82;65.82;100380.95;130364;1268;108730;-73
2022/07/25 05:32:59;;;;;;;4.00;3.60;;;;;;;21.80;66.10;100381.09;130369;1267;108746;-73
2022/07/25 05:36:05;;;;;;;6.10;3.70;;;;;;;21.75;66.01;100382.60;130338;1268;108820;-73
2022/07/25 05:39:10;;;;;;;5.50;3.30;;;;;;;21.74;66.01;100383.44;130334;1268;108931;-72
2022/07/25 05:42:16;;;;;;;3.60;3.20;;;;;;;21.75;66.15;100379.52;130432;1268;108825;-74
2022/07/25 05:45:21;;;;;;;3.50;2.90;;;;;;;21.76;66.02;100378.66;130435;1268;108737;-73
2022/07/25 05:48:27;;;;;;;3.20;2.90;;;;;;;21.77;66.15;100374.52;130336;1266;108621;-73
2022/07/25 05:51:32;;;;;;;3.90;3.20;;;;;;;21.82;66.09;100374.60;130370;1268;108732;-73
2022/07/25 05:54:39;;;;;;;3.90;3.50;;;;;;;21.82;66.09;100369.27;130363;1267;108916;-73
2022/07/25 05:57:44;;;;;;;3.20;2.90;;;;;;;21.82;66.23;100365.14;130382;1268;108721;-73
2022/07/25 06:00:51;;;;;;;4.00;3.40;;;;;;;21.85;66.16;100359.41;130414;1268;109105;-74
2022/07/25 06:03:56;;;;;;;3.50;3.20;;;;;;;21.83;66.07;100352.90;130364;1268;109017;-73
2022/07/25 06:07:01;;;;;;;5.30;3.90;;;;;;;21.83;66.31;100353.92;130465;1268;109280;-73
2022/07/25 06:10:08;;;;;;;4.00;3.70;;;;;;;21.83;65.97;100356.16;130358;1267;108970;-73
2022/07/25 06:13:13;;;;;;;4.40;3.90;;;;;;;21.82;65.87;100350.09;130346;1268;107665;-73
2022/07/25 06:16:18;;;;;;;3.90;3.60;;;;;;;21.82;65.96;100348.09;130369;1268;108738;-73
2022/07/25 06:19:24;;;;;;;3.80;3.40;;;;;;;21.80;65.84;100344.07;130402;1268;108803;-74
2022/07/25 06:22:31;;;;;;;3.80;3.40;;;;;;;21.75;65.65;100343.73;130408;1268;109373;-73
2022/07/25 06:25:36;;;;;;;3.80;3.50;;;;;;;21.70;65.57;100341.08;130424;1268;108798;-73
2022/07/25 06:28:42;;;;;;;4.90;3.70;;;;;;;21.68;65.79;100337.50;130307;1268;108779;-73
2022/07/25 06:31:47;;;;;;;3.60;3.30;;;;;;;21.67;65.68;100336.02;130517;1268;108648;-74
2022/07/25 06:34:53;;;;;;;3.80;3.50;;;;;;;21.64;65.46;100334.62;130362;1268;108191;-74
2022/07/25 06:37:58;;;;;;;3.80;3.40;;;;;;;21.61;65.24;100329.09;130399;1268;108757;-74
2022/07/25 06:41:04;;;;;;;3.70;3.40;;;;;;;21.60;65.24;100327.31;130498;1267;107030;-74
2022/07/25 06:44:10;;;;;;;4.20;3.80;;;;;;;21.60;65.39;100328.60;130433;1268;107906;-73
2022/07/25 06:47:15;;;;;;;3.80;3.40;;;;;;;21.61;65.21;100333.43;130510;1268;107649;-75
2022/07/25 06:50:21;;;;;;;4.40;3.60;;;;;;;21.61;65.00;100328.64;130432;1268;108731;-73
2022/07/25 06:53:27;;;;;;;3.60;3.30;;;;;;;21.60;65.10;100328.89;130362;1268;108850;-74
2022/07/25 06:56:32;;;;;;;3.40;3.00;;;;;;;21.64;65.21;100320.79;130391;1268;107054;-73
2022/07/25 06:59:38;;;;;;;4.40;3.10;;;;;;;21.66;64.88;100313.00;130329;1268;108898;-73
2022/07/25 07:02:52;;;;;;;3.80;3.00;;;;;;;21.69;64.68;100304.73;130358;1268;108981;-73
2022/07/25 07:05:57;;;;;;;3.10;2.80;;;;;;;21.74;64.92;100305.44;130358;1268;108619;-74
2022/07/25 07:09:02;;;;;;;3.30;3.00;;;;;;;21.81;64.99;100309.16;130387;1267;108292;-74
2022/07/25 07:12:09;;;;;;;2.70;2.50;;;;;;;21.86;64.62;100304.38;130525;1268;108926;-73
2022/07/25 07:15:15;;;;;;;3.20;2.70;;;;;;;21.92;64.53;100299.59;130477;1268;108163;-73
2022/07/25 07:18:21;;;;;;;3.30;3.00;;;;;;;21.97;64.28;100290.75;130363;1268;107515;-73
2022/07/25 07:21:26;;;;;;;3.10;2.80;;;;;;;21.99;63.58;100290.27;130400;1268;108677;-74
2022/07/25 07:24:32;;;;;;;3.10;2.70;;;;;;;21.95;62.90;100287.13;130437;1268;108956;-74
2022/07/25 07:27:37;;;;;;;3.30;2.30;;;;;;;21.98;63.55;100290.63;130447;1268;108702;-74
2022/07/25 07:30:43;;;;;;;2.60;2.20;;;;;;;22.03;63.39;100289.27;130446;1268;108851;-75
2022/07/25 07:33:49;;;;;;;3.00;2.80;;;;;;;22.10;63.35;100285.33;130420;1268;108898;-73
2022/07/25 07:36:54;;;;;;;2.60;2.40;;;;;;;22.17;63.21;100283.52;130362;1268;108872;-73
2022/07/25 07:39:59;;;;;;;2.50;2.30;;;;;;;22.22;62.53;100282.08;130375;1268;108968;-74
2022/07/25 07:43:05;;;;;;;2.90;2.30;;;;;;;22.26;62.66;100276.02;130499;1268;108870;-74
2022/07/25 07:46:10;;;;;;;2.40;2.20;;;;;;;22.34;62.76;100276.02;130527;1266;108522;-75
2022/07/25 07:49:16;;;;;;;2.50;2.30;;;;;;;22.43;62.20;100278.77;130443;1268;109063;-73
2022/07/25 07:52:21;;;;;;;2.50;2.30;;;;;;;22.47;61.63;100275.98;130456;1268;108699;-74
2022/07/25 07:55:47;;;;;;;2.50;2.10;;;;;;;22.50;62.04;100276.79;130515;1267;108832;-74
2022/07/25 07:58:52;;;;;;;2.70;2.30;;;;;;;22.64;62.07;100277.30;130464;1268;108487;-74
2022/07/25 08:01:58;;;;;;;2.40;2.20;;;;;;;22.70;61.26;100275.11;130500;1268;109008;-74
2022/07/25 08:05:03;;;;;;;2.60;2.40;;;;;;;22.77;61.52;100276.44;130543;1265;108628;-74
2022/07/25 08:08:11;;;;;;;2.30;2.10;;;;;;;22.84;61.34;100273.85;130279;1268;108776;-75
2022/07/25 08:11:16;;;;;;;2.10;2.00;;;;;;;22.92;61.11;100264.73;130506;1268;109342;-74
2022/07/25 08:14:21;;;;;;;2.20;2.00;;;;;;;22.99;60.75;100262.06;130464;1268;108735;-74
2022/07/25 08:17:27;;;;;;;2.50;2.30;;;;;;;23.08;60.82;100263.11;130387;1268;107668;-75
2022/07/25 08:20:32;;;;;;;2.10;1.90;;;;;;;23.18;60.41;100261.42;130378;1268;108985;-75
2022/07/25 08:23:38;;;;;;;2.10;1.90;;;;;;;23.28;60.47;100262.30;130396;1266;109126;-75
2022/07/25 08:26:43;;;;;;;2.70;1.70;;;;;;;23.36;59.84;100258.63;130402;1268;107142;-75
2022/07/25 08:29:48;;;;;;;1.90;1.80;;;;;;;23.45;60.00;100258.22;130423;1266;109023;-76
2022/07/25 08:32:56;;;;;;;2.50;1.70;;;;;;;23.48;59.47;100257.23;130373;1268;108878;-75
2022/07/25 08:36:01;;;;;;;2.40;1.90;;;;;;;23.48;59.36;100252.09;130436;1268;108981;-75
2022/07/25 08:39:06;;;;;;;2.30;2.10;;;;;;;23.51;59.06;100249.92;130521;1267;108845;-76
2022/07/25 08:42:12;;;;;;;2.80;2.00;;;;;;;23.56;58.38;100245.60;130523;1268;108843;-76
2022/07/25 08:45:19;;;;;;;3.00;2.00;;;;;;;23.57;58.17;100243.50;130485;1266;108741;-75
2022/07/25 08:48:26;;;;;;;2.00;1.80;;;;;;;23.62;58.19;100245.63;130398;1268;108644;-75
2022/07/25 08:51:33;;;;;;;1.90;1.70;;;;;;;23.67;57.99;100241.59;130446;1268;108777;-75
2022/07/25 08:54:40;;;;;;;1.90;1.70;;;;;;;23.68;57.30;100235.41;130477;1268;108896;-75
2022/07/25 08:57:47;;;;;;;2.00;1.90;;;;;;;23.69;56.84;100231.98;130559;1268;108753;-73
2022/07/25 09:00:52;;;;;;;3.10;1.90;;;;;;;23.71;56.66;100227.09;130374;1267;108811;-76
2022/07/25 09:04:07;;;;;;;2.10;1.80;;;;;;;23.78;56.95;100232.58;130394;1268;109067;-76
2022/07/25 09:07:12;;;;;;;2.50;1.80;;;;;;;23.85;56.65;100233.88;130496;1268;108998;-78
2022/07/25 09:10:20;;;;;;;1.90;1.70;;;;;;;23.90;56.14;100234.31;130497;1268;108710;-76
2022/07/25 09:13:25;;;;;;;1.80;1.70;;;;;;;23.94;55.75;100233.29;130503;1268;110028;-76
2022/07/25 09:16:36;;;;;;;2.90;2.00;;;;;;;23.97;56.26;100230.53;130443;1268;109143;-76
2022/07/25 09:19:53;;;;;;;2.10;1.90;;;;;;;24.04;56.31;100230.83;130436;1267;108640;-76
2022/07/25 09:22:58;;;;;;;3.20;1.80;;;;;;;24.10;55.93;100227.01;130376;1267;108884;-76
2022/07/25 09:26:06;;;;;;;2.10;1.90;;;;;;;24.16;55.94;100225.16;130430;1268;108898;-76
2022/07/25 09:29:18;;;;;;;2.60;1.90;;;;;;;24.20;55.65;100226.59;130558;1268;108089;-76
2022/07/25 09:32:24;;;;;;;1.90;1.70;;;;;;;24.21;54.65;100226.46;130613;1267;107085;-76
2022/07/25 09:35:35;;;;;;;1.90;1.70;;;;;;;24.23;54.06;100226.59;130500;1268;109039;-76
2022/07/25 09:38:40;;;;;;;2.80;1.80;;;;;;;24.24;52.48;100221.54;130469;1268;108787;-75
2022/07/25 09:41:48;;;;;;;1.90;1.70;;;;;;;24.29;53.90;100218.95;130407;1268;108955;-75
2022/07/25 09:45:10;;;;;;;2.10;1.80;;;;;;;24.38;54.09;100217.04;130475;1266;108045;-76
2022/07/25 09:48:15;;;;;;;;;;;;;;;24.42;54.08;100216.42;130401;1268;108713;-75
2022/07/25 09:51:22;;;;;;;1.90;1.60;;;;;;;24.46;54.07;100213.98;130516;1266;108565;-74
2022/07/25 09:54:28;;;;;;;2.50;1.90;;;;;;;24.54;53.89;100208.92;130285;1265;334164;-75
2022/07/25 09:57:33;;;;;;;2.20;2.00;;;;;;;24.59;53.73;100209.43;130555;1266;108756;-76
2022/07/25 10:00:42;;;;;;;1.80;1.70;;;;;;;24.63;52.87;100197.98;130468;1268;108505;-75
2022/07/25 10:03:52;;;;;;;1.70;1.60;;;;;;;24.69;52.46;100193.66;130435;1265;108711;-75
2022/07/25 10:07:08;;;;;;;1.80;1.70;;;;;;;24.71;50.23;100190.85;130424;1268;108631;-75
2022/07/25 10:10:27;;;;;;;1.70;1.60;;;;;;;24.77;52.34;100186.25;130506;1267;108995;-75
2022/07/25 10:13:34;;;;;;;2.30;1.70;;;;;;;24.80;52.00;100180.58;130399;1266;108527;-75
2022/07/25 10:16:47;;;;;;;1.80;1.70;;;;;;;24.85;52.34;100179.89;130570;1268;108563;-75
2022/07/25 10:19:53;;;;;;;1.40;1.30;;;;;;;24.91;51.71;100174.67;130553;1268;108990;-75
2022/07/25 10:22:59;;;;;;;1.80;1.60;;;;;;;24.94;51.37;100171.44;130911;1267;108714;-76
2022/07/25 10:26:10;;;;;;;1.60;1.50;;;;;;;24.95;51.32;100169.22;130467;1265;109019;-75
2022/07/25 10:29:15;;;;;;;3.40;1.80;;;;;;;25.01;51.46;100167.02;130465;1265;108852;-75
2022/07/25 10:32:25;;;;;;;2.10;1.90;;;;;;;25.05;51.17;100161.68;130433;1265;109686;-75
2022/07/25 10:35:31;;;;;;;3.60;1.80;;;;;;;25.14;51.77;100163.10;130584;1265;108929;-75
2022/07/25 10:38:38;;;;;;;1.80;1.50;;;;;;;25.20;51.61;100159.20;130455;1265;108808;-77
2022/07/25 10:41:50;;;;;;;2.50;1.50;;;;;;;25.20;50.58;100155.32;130357;1268;106667;-75
2022/07/25 10:44:57;;;;;;;2.10;1.80;;;;;;;25.18;50.76;100149.84;130548;1265;108849;-76
2022/07/25 10:48:08;;;;;;;2.50;2.00;;;;;;;25.20;50.95;100147.84;130397;1268;108910;-76
2022/07/25 10:51:15;;;;;;;1.80;1.70;;;;;;;25.24;50.94;100143.83;130300;1266;108707;-74
2022/07/25 10:54:23;;;;;;;2.00;1.80;;;;;;;25.29;51.01;100139.19;130515;1266;108586;-76
2022/07/25 10:57:29;;;;;;;2.10;1.90;;;;;;;25.29;50.19;100135.83;130430;1268;108952;-75
2022/07/25 11:00:42;;;;;;;2.00;1.70;;;;;;;25.29;50.42;100139.70;130371;1268;109352;-75
2022/07/25 11:03:47;;;;;;;1.70;1.60;;;;;;;25.30;50.01;100135.61;130345;1267;109991;-74
2022/07/25 11:06:53;;;;;;;2.10;1.60;;;;;;;25.33;50.30;100134.33;130427;1268;108714;-76
2022/07/25 11:10:00;;;;;;;1.70;1.60;;;;;;;25.33;49.30;100126.04;130466;1268;108741;-75
2022/07/25 11:13:09;;;;;;;1.70;1.60;;;;;;;25.34;49.57;100118.40;130512;1267;109050;-76
2022/07/25 11:16:14;;;;;;;2.40;1.40;;;;;;;25.36;49.43;100119.69;130420;1268;110018;-74
2022/07/25 11:19:23;;;;;;;2.30;1.50;;;;;;;25.39;49.43;100118.06;130425;1268;109005;-76
2022/07/25 11:22:30;;;;;;;2.50;1.40;;;;;;;25.42;49.13;100109.42;130441;1268;108863;-75
2022/07/25 11:25:36;;;;;;;1.70;1.60;;;;;;;25.45;48.95;100112.16;130373;1268;108600;-75
2022/07/25 11:28:44;;;;;;;2.30;1.90;;;;;;;25.50;48.89;100104.92;130422;1268;108829;-75
2022/07/25 11:32:01;;;;;;;2.90;1.30;;;;;;;25.51;48.36;100106.52;130475;1268;108762;-75
2022/07/25 11:35:08;;;;;;;2.00;1.50;;;;;;;25.52;48.50;100105.45;130500;1268;108956;-75
2022/07/25 11:38:14;;;;;;;2.70;1.70;;;;;;;25.53;47.69;100099.83;130374;1267;109841;-75
2022/07/25 11:41:30;;;;;;;2.90;1.70;;;;;;;25.56;47.90;100093.41;130385;1268;108896;-75
2022/07/25 11:44:38;;;;;;;1.80;1.50;;;;;;;25.59;47.54;100098.97;130383;1267;108754;-75
2022/07/25 11:47:43;;;;;;;1.80;1.60;;;;;;;25.60;47.67;100090.34;130393;1267;108903;-75
2022/07/25 11:50:48;;;;;;;2.10;1.60;;;;;;;25.63;47.80;100086.11;130310;1268;108923;-74
2022/07/25 11:53:54;;;;;;;2.90;1.50;;;;;;;25.67;47.26;100088.77;130501;1268;108824;-74
2022/07/25 11:57:00;;;;;;;2.90;1.60;;;;;;;25.71;47.78;100083.45;130427;1267;108842;-74
2022/07/25 12:00:09;;;;;;;1.70;1.40;;;;;;;25.75;47.44;100075.80;130447;1266;108759;-75
2022/07/25 12:03:19;;;;;;;1.60;1.50;;;;;;;25.76;47.36;100073.18;130516;1268;108821;-75
2022/07/25 12:06:30;;;;;;;1.70;1.50;;;;;;;25.81;47.13;100063.50;130478;1266;108622;-75
2022/07/25 12:09:36;;;;;;;1.80;1.70;;;;;;;25.84;47.27;100058.05;130483;1267;108907;-75
2022/07/25 12:12:51;;;;;;;1.90;1.70;;;;;;;25.88;47.06;100048.85;130462;1268;108999;-76
2022/07/25 12:15:57;;;;;;;2.50;1.80;;;;;;;25.89;46.96;100045.92;130389;1267;107698;-75
2022/07/25 12:19:04;;;;;;;2.30;2.10;;;;;;;25.94;47.19;100043.89;130361;1267;108895;-74
2022/07/25 12:22:09;;;;;;;2.00;1.80;;;;;;;25.97;46.23;100039.79;130382;1265;108178;-74
2022/07/25 12:25:15;;;;;;;1.80;1.70;;;;;;;25.97;46.57;100037.36;130354;1266;108771;-75
2022/07/25 12:28:20;;;;;;;1.90;1.40;;;;;;;26.02;46.56;100033.70;130333;1267;108741;-75
2022/07/25 12:31:27;;;;;;;1.60;1.50;;;;;;;26.08;46.80;100028.77;130340;1268;108897;-74
2022/07/25 12:34:33;;;;;;;1.90;1.70;;;;;;;26.15;46.59;100022.76;130362;1268;108670;-75
2022/07/25 12:37:39;;;;;;;3.20;1.50;;;;;;;26.21;46.16;100019.69;130350;1267;108648;-75
2022/07/25 12:40:45;;;;;;;1.80;1.70;;;;;;;26.21;45.75;100024.48;130381;1267;108812;-75
2022/07/25 12:43:50;;;;;;;1.90;1.70;;;;;;;26.21;45.62;100020.99;130456;1265;108898;-75
2022/07/25 12:46:56;;;;;;;2.00;1.70;;;;;;;26.21;45.52;100014.21;130422;1265;108696;-75
2022/07/25 12:50:01;;;;;;;2.30;2.00;;;;;;;26.25;45.89;100013.91;130457;1265;109078;-75
2022/07/25 12:53:07;;;;;;;1.80;1.70;;;;;;;26.32;46.38;100009.83;130416;1265;108572;-75
2022/07/25 12:56:13;;;;;;;1.80;1.70;;;;;;;26.37;45.64;100001.79;130430;1265;107659;-75
2022/07/25 12:59:18;;;;;;;1.70;1.60;;;;;;;26.38;45.67;100000.91;130339;1265;108748;-75
2022/07/25 13:02:24;;;;;;;1.70;1.60;;;;;;;26.45;45.57;99995.21;130386;1265;108229;-75
2022/07/25 13:05:29;;;;;;;1.70;1.60;;;;;;;26.47;45.27;99990.07;130398;1265;108926;-75
2022/07/25 13:08:36;;;;;;;2.10;1.50;;;;;;;26.47;45.03;99989.53;130405;1265;108742;-75
2022/07/25 13:11:42;;;;;;;2.80;1.80;;;;;;;26.46;44.58;99985.80;130430;1265;109208;-75
2022/07/25 13:14:47;;;;;;;2.50;1.80;;;;;;;26.50;45.06;99985.73;130381;1265;108750;-75
2022/07/25 13:17:53;;;;;;;2.80;1.60;;;;;;;26.56;45.00;99981.33;130503;1265;108842;-75
2022/07/25 13:20:59;;;;;;;2.00;1.80;;;;;;;26.56;44.49;99974.05;130411;1265;107719;-75
2022/07/25 13:24:06;;;;;;;3.50;2.50;;;;;;;26.58;44.69;99965.04;130379;1266;108898;-75
2022/07/25 13:27:12;;;;;;;2.40;2.20;;;;;;;26.62;44.83;99965.73;130509;1268;108722;-75
2022/07/25 13:30:17;;;;;;;2.60;1.90;;;;;;;26.69;45.02;99963.13;130369;1268;108707;-72
2022/07/25 13:33:22;;;;;;;2.80;1.90;;;;;;;26.73;45.08;99953.67;130366;1268;109738;-74
2022/07/25 13:36:28;;;;;;;2.60;1.90;;;;;;;26.78;44.98;99948.71;130368;1268;108975;-75
2022/07/25 13:39:34;;;;;;;1.90;1.70;;;;;;;26.83;44.86;99943.53;130313;1267;108147;-74
2022/07/25 13:42:40;;;;;;;2.10;1.40;;;;;;;26.86;43.87;99942.87;130295;1267;108637;-73
2022/07/25 13:45:46;;;;;;;2.70;1.60;;;;;;;26.83;44.23;99940.63;130283;1267;108837;-73
2022/07/25 13:48:52;;;;;;;2.80;1.50;;;;;;;26.83;43.76;99943.54;130274;1268;108631;-73
2022/07/25 13:51:57;;;;;;;1.90;1.60;;;;;;;26.82;43.38;99940.41;130287;1268;108783;-73
2022/07/25 13:55:03;;;;;;;1.70;1.60;;;;;;;26.82;43.87;99938.48;130387;1268;109067;-74
2022/07/25 13:58:09;;;;;;;1.80;1.50;;;;;;;26.86;43.78;99934.45;130257;1267;108252;-76
2022/07/25 14:01:14;;;;;;;3.50;2.40;;;;;;;26.90;43.90;99931.79;130311;1268;108829;-74
2022/07/25 14:04:20;;;;;;;1.90;1.70;;;;;;;26.90;42.99;99927.95;130222;1268;107879;-73
2022/07/25 14:07:25;;;;;;;3.80;3.10;;;;;;;26.88;43.18;99922.85;130287;1268;108959;-73
2022/07/25 14:10:30;;;;;;;4.10;1.80;;;;;;;26.91;43.64;99916.02;130340;1265;108991;-72